Time;durP1;ratioP1;P1;durP2;ratioP2;P2;SDS_P1;SDS_P2;PMS_P1;PMS_P2;Temp;Humidity;BMP_temperature;BMP_pressure;BME280_temperature;BME280_humidity;BME280_pressure;Samples;Min_cycle;Max_cycle;Signal;HPM_P1;HPM_P2
2021/01/27 00:00:48;;;;;;;8.02;4.45;;;3.50;81.60;;;;;;5077181;28;20588;-82
2021/01/27 00:03:13;;;;;;;9.25;4.63;;;3.60;81.60;;;;;;5094197;28;20040;-82
2021/01/27 00:05:41;;;;;;;9.50;4.30;;;3.50;81.60;;;;;;5095782;28;20370;-82
2021/01/27 00:08:08;;;;;;;8.30;4.30;;;3.60;81.80;;;;;;5095824;28;20103;-82
2021/01/27 00:10:35;;;;;;;9.35;4.68;;;3.50;81.80;;;;;;5078245;28;20557;-81
2021/01/27 00:13:01;;;;;;;7.70;4.03;;;3.50;81.80;;;;;;5095205;28;20816;-82
2021/01/27 00:15:33;;;;;;;10.07;4.22;;;3.50;81.70;;;;;;5096044;28;20089;-82
2021/01/27 00:17:58;;;;;;;15.98;4.70;;;3.50;81.70;;;;;;5094743;28;20524;-82
2021/01/27 00:20:26;;;;;;;11.00;4.57;;;3.60;81.70;;;;;;5074472;28;20127;-82
2021/01/27 00:22:52;;;;;;;8.63;4.53;;;3.60;81.50;;;;;;5089626;28;20024;-82
2021/01/27 00:25:23;;;;;;;7.15;4.50;;;3.60;81.50;;;;;;5077903;28;20392;-82
2021/01/27 00:27:49;;;;;;;5.95;4.22;;;3.60;81.60;;;;;;5094590;28;20016;-82
2021/01/27 00:30:19;;;;;;;6.93;4.18;;;3.60;81.60;;;;;;5089146;28;20019;-82
2021/01/27 00:32:46;;;;;;;6.05;4.07;;;3.60;81.60;;;;;;5069420;28;20390;-82
2021/01/27 00:35:12;;;;;;;6.88;4.70;;;3.60;81.60;;;;;;5094643;28;20020;-82
2021/01/27 00:37:38;;;;;;;10.50;4.43;;;3.60;81.40;;;;;;5094674;28;20043;-82
2021/01/27 00:40:05;;;;;;;7.95;3.88;;;3.60;81.40;;;;;;5094295;28;20388;-82
2021/01/27 00:42:31;;;;;;;6.50;3.92;;;3.60;81.40;;;;;;5077610;28;20401;-82
2021/01/27 00:44:56;;;;;;;6.38;3.97;;;3.50;82.00;;;;;;5077465;28;20052;-82
2021/01/27 00:47:22;;;;;;;9.15;4.18;;;3.50;81.10;;;;;;5094359;28;20057;-82
2021/01/27 00:49:48;;;;;;;7.65;4.13;;;3.60;80.90;;;;;;5094157;28;20052;-82
2021/01/27 00:52:13;;;;;;;7.32;3.85;;;3.60;81.10;;;;;;5094079;28;20043;-82
2021/01/27 00:54:39;;;;;;;8.98;4.20;;;3.50;81.10;;;;;;5072926;28;20033;-82
2021/01/27 00:57:05;;;;;;;6.30;3.85;;;3.60;81.10;;;;;;5093096;28;20043;-81
2021/01/27 00:59:31;;;;;;;5.65;3.58;;;3.50;80.90;;;;;;5093179;28;20024;-82
2021/01/27 01:01:56;;;;;;;6.88;4.00;;;3.60;81.10;;;;;;5074858;28;20036;-81
2021/01/27 01:04:22;;;;;;;6.40;3.25;;;3.60;81.10;;;;;;5072130;28;20033;-82
2021/01/27 01:06:48;;;;;;;8.00;3.85;;;3.60;81.10;;;;;;5076381;28;20023;-82
2021/01/27 01:09:13;;;;;;;6.68;3.40;;;3.60;81.10;;;;;;5093516;28;20115;-81
2021/01/27 01:11:39;;;;;;;5.95;3.65;;;3.60;81.10;;;;;;5094949;28;20036;-82
2021/01/27 01:14:05;;;;;;;6.38;3.72;;;3.60;81.00;;;;;;5060082;28;20062;-82
2021/01/27 01:16:31;;;;;;;8.25;4.05;;;3.60;81.10;;;;;;5093228;28;20153;-81
2021/01/27 01:18:56;;;;;;;7.15;3.63;;;3.60;81.10;;;;;;5094761;28;20055;-81
2021/01/27 01:21:22;;;;;;;11.23;4.45;;;3.50;80.30;;;;;;5093404;28;20125;-82
2021/01/27 01:23:48;;;;;;;11.63;3.70;;;3.60;80.30;;;;;;5093377;28;20099;-82
2021/01/27 01:26:13;;;;;;;5.13;3.58;;;3.60;80.00;;;;;;5093419;28;20062;-82
2021/01/27 01:28:39;;;;;;;8.50;3.63;;;3.50;79.80;;;;;;5094288;28;20056;-82
2021/01/27 01:31:05;;;;;;;5.90;3.35;;;3.50;80.10;;;;;;5094511;28;20115;-82
2021/01/27 01:33:32;;;;;;;6.63;3.50;;;3.50;80.10;;;;;;5072965;28;20066;-82
2021/01/27 01:35:58;;;;;;;3.97;2.80;;;3.50;80.40;;;;;;5089851;28;20055;-82
2021/01/27 01:38:24;;;;;;;7.07;3.20;;;3.50;80.50;;;;;;5101967;28;20050;-82
2021/01/27 01:40:51;;;;;;;5.63;3.30;;;3.50;80.90;;;;;;5103760;28;20052;-82
2021/01/27 01:43:35;;;;;;;6.35;3.28;;;3.40;81.10;;;;;;5093075;28;20418;-82
2021/01/27 01:46:05;;;;;;;6.10;3.17;;;3.40;81.60;;;;;;5093011;28;20119;-82
2021/01/27 01:48:31;;;;;;;10.75;2.60;;;3.40;81.80;;;;;;5093017;28;20110;-82
2021/01/27 01:51:29;;;;;;;4.10;2.50;;;3.30;82.10;;;;;;5092264;28;20103;-82
2021/01/27 01:54:11;;;;;;;6.88;2.83;;;3.30;82.50;;;;;;5090450;28;20110;-82
2021/01/27 01:56:43;;;;;;;4.05;2.42;;;3.30;83.00;;;;;;5094164;28;20050;-82
2021/01/27 01:59:11;;;;;;;4.55;2.70;;;3.20;83.30;;;;;;5093922;28;20078;-81
2021/01/27 02:01:38;;;;;;;7.80;2.50;;;3.30;83.80;;;;;;5075797;28;20085;-82
2021/01/27 02:04:03;;;;;;;4.78;2.70;;;3.20;83.90;;;;;;5076008;28;20085;-82
2021/01/27 02:06:29;;;;;;;4.93;2.55;;;3.20;84.20;;;;;;5092570;28;20020;-82
2021/01/27 02:08:58;;;;;;;2.70;2.42;;;3.20;85.10;;;;;;5075917;28;20477;-82
2021/01/27 02:12:12;;;;;;;3.97;2.55;;;3.20;84.60;;;;;;5093607;28;20023;-82
2021/01/27 02:14:53;;;;;;;3.85;2.70;;;3.20;84.90;;;;;;5071326;28;20488;-82
2021/01/27 02:17:34;;;;;;;4.75;2.50;;;3.20;85.20;;;;;;5073561;28;20029;-82
2021/01/27 02:20:29;;;;;;;6.43;3.22;;;3.10;85.40;;;;;;5072149;28;20067;-82
2021/01/27 02:23:20;;;;;;;5.45;3.40;;;3.10;85.60;;;;;;5072239;28;20546;-82
2021/01/27 02:26:22;;;;;;;4.57;2.65;;;3.10;85.90;;;;;;5072287;28;20029;-82
2021/01/27 02:29:13;;;;;;;6.45;3.00;;;3.10;86.10;;;;;;5072405;28;20052;-82
2021/01/27 02:32:08;;;;;;;6.47;2.70;;;3.10;86.40;;;;;;5073320;28;20039;-82
2021/01/27 02:34:58;;;;;;;5.28;2.38;;;3.10;86.60;;;;;;5105985;28;20477;-82
2021/01/27 02:37:37;;;;;;;5.30;2.25;;;3.10;86.70;;;;;;5093130;28;20107;-81
2021/01/27 02:40:36;;;;;;;6.65;2.88;;;3.10;86.60;;;;;;5073911;28;20036;-82
2021/01/27 02:43:13;;;;;;;7.33;3.00;;;3.10;86.80;;;;;;4985399;28;20261;-82
2021/01/27 02:45:51;;;;;;;5.57;2.88;;;3.10;87.60;;;;;;5092171;28;20034;-82
2021/01/27 02:48:36;;;;;;;5.70;2.92;;;3.10;87.00;;;;;;5091861;28;20034;-82
2021/01/27 02:51:20;;;;;;;4.93;2.90;;;3.10;87.10;;;;;;5093252;28;20026;-82
2021/01/27 02:54:15;;;;;;;8.30;2.67;;;3.10;87.20;;;;;;5092087;28;20024;-81
2021/01/27 02:56:53;;;;;;;7.28;2.95;;;3.10;87.20;;;;;;5031478;28;20057;-81
2021/01/27 02:59:25;;;;;;;4.30;2.90;;;3.20;87.30;;;;;;5091888;28;20031;-81
2021/01/27 03:02:12;;;;;;;6.72;2.95;;;3.20;87.30;;;;;;5093224;28;20074;-82
2021/01/27 03:04:48;;;;;;;5.47;3.40;;;3.20;87.40;;;;;;5095183;28;20103;-82
2021/01/27 03:07:16;;;;;;;9.27;3.35;;;3.10;87.40;;;;;;5096045;28;20511;-80
2021/01/27 03:09:56;;;;;;;4.60;3.20;;;3.10;87.40;;;;;;5096936;28;20032;-82
2021/01/27 03:12:22;;;;;;;5.55;3.17;;;3.10;87.60;;;;;;5096113;28;20058;-82
2021/01/27 03:14:48;;;;;;;7.45;3.10;;;3.10;87.50;;;;;;5095920;28;20028;-81
2021/01/27 03:17:17;;;;;;;5.10;2.95;;;3.10;87.50;;;;;;5095698;28;20537;-82
2021/01/27 03:20:00;;;;;;;5.00;2.95;;;3.10;87.50;;;;;;5095428;28;20032;-81
2021/01/27 03:22:48;;;;;;;4.57;2.97;;;3.20;87.70;;;;;;5095814;28;20396;-82
2021/01/27 03:25:24;;;;;;;7.05;3.05;;;3.20;87.70;;;;;;5096542;28;20103;-82
2021/01/27 03:28:09;;;;;;;7.10;3.30;;;3.20;87.50;;;;;;5096692;28;20508;-81
2021/01/27 03:30:35;;;;;;;4.03;2.67;;;3.20;87.50;;;;;;5095621;28;20380;-82
2021/01/27 03:33:23;;;;;;;4.38;2.80;;;3.20;87.40;;;;;;5095660;28;20494;-82
2021/01/27 03:35:58;;;;;;;7.03;3.08;;;3.30;87.50;;;;;;5095081;28;20024;-82
2021/01/27 03:38:47;;;;;;;6.05;2.83;;;3.30;87.40;;;;;;5095183;28;20028;-82
2021/01/27 03:41:24;;;;;;;;;;;3.20;87.20;;;;;;5094927;28;20153;-81
2021/01/27 03:43:56;;;;;;;6.57;2.47;;;3.30;87.10;;;;;;5088977;28;20288;-82
2021/01/27 03:47:00;;;;;;;5.47;2.75;;;3.20;87.20;;;;;;5094467;28;20032;-81
2021/01/27 03:49:48;;;;;;;4.13;2.33;;;3.20;87.20;;;;;;5091734;28;20446;-82
2021/01/27 03:52:23;;;;;;;7.68;2.60;;;3.20;87.80;;;;;;5094610;28;20020;-82
2021/01/27 03:54:58;;;;;;;4.45;3.00;;;3.30;87.20;;;;;;5094574;28;20020;-81
2021/01/27 03:57:32;;;;;;;5.82;2.88;;;3.30;87.30;;;;;;5094458;28;20028;-81
2021/01/27 03:59:57;;;;;;;4.82;2.53;;;3.30;87.30;;;;;;5094980;28;20016;-81
2021/01/27 04:02:23;;;;;;;4.72;2.33;;;3.30;87.20;;;;;;5077272;28;20039;-82
2021/01/27 04:04:49;;;;;;;4.80;2.80;;;3.30;87.00;;;;;;5094368;28;20058;-81
2021/01/27 04:07:16;;;;;;;4.82;2.35;;;3.30;86.90;;;;;;5077301;28;20551;-81
2021/01/27 04:09:42;;;;;;;3.33;2.05;;;3.30;86.90;;;;;;5092948;28;20032;-81
2021/01/27 04:12:08;;;;;;;5.28;2.25;;;3.30;86.90;;;;;;5074264;28;20036;-82
2021/01/27 04:14:35;;;;;;;3.80;2.00;;;3.30;86.90;;;;;;5093230;28;20028;-81
2021/01/27 04:17:21;;;;;;;5.05;2.45;;;3.30;86.80;;;;;;5095687;28;20024;-82
2021/01/27 04:19:47;;;;;;;4.45;2.40;;;3.30;86.90;;;;;;5095252;28;20038;-82
2021/01/27 04:22:13;;;;;;;2.47;1.80;;;3.30;86.80;;;;;;5077291;28;20115;-82
2021/01/27 04:24:38;;;;;;;3.88;1.90;;;3.40;86.80;;;;;;5093397;28;20039;-81
2021/01/27 04:27:04;;;;;;;4.25;1.70;;;3.30;86.70;;;;;;5073435;28;20032;-82
2021/01/27 04:29:30;;;;;;;3.53;1.90;;;3.30;86.70;;;;;;5076446;28;20051;-81
2021/01/27 04:31:55;;;;;;;2.25;1.65;;;3.40;86.80;;;;;;5073545;28;20036;-82
2021/01/27 04:34:21;;;;;;;4.78;1.90;;;3.40;86.90;;;;;;5076839;28;20036;-82
2021/01/27 04:36:46;;;;;;;3.45;1.55;;;3.40;87.00;;;;;;5093271;28;20480;-82
2021/01/27 04:39:12;;;;;;;3.38;1.70;;;3.30;87.10;;;;;;5076090;28;20039;-82
2021/01/27 04:41:38;;;;;;;4.03;1.60;;;3.30;87.30;;;;;;5076414;28;20044;-82
2021/01/27 04:44:04;;;;;;;3.38;1.80;;;3.30;87.50;;;;;;5073282;28;20032;-82
2021/01/27 04:46:35;;;;;;;3.13;1.70;;;3.30;87.70;;;;;;5093094;28;20035;-81
2021/01/27 04:49:15;;;;;;;3.10;1.73;;;3.30;87.90;;;;;;5092735;28;20028;-82
2021/01/27 04:52:23;;;;;;;4.00;1.65;;;3.20;88.20;;;;;;5094628;28;20028;-82
2021/01/27 04:55:00;;;;;;;2.77;1.57;;;3.20;88.50;;;;;;5002770;28;20042;-82
2021/01/27 04:57:35;;;;;;;2.28;1.63;;;3.20;88.60;;;;;;5093116;28;20024;-82
2021/01/27 05:00:36;;;;;;;4.35;1.75;;;3.20;88.80;;;;;;5093352;28;20036;-82
2021/01/27 05:03:14;;;;;;;2.67;1.67;;;3.10;89.00;;;;;;5093395;28;20028;-82
2021/01/27 05:05:44;;;;;;;3.95;1.67;;;3.20;89.30;;;;;;5093081;28;20492;-81
2021/01/27 05:08:09;;;;;;;3.70;1.52;;;3.20;89.50;;;;;;5094488;28;20028;-82
2021/01/27 05:10:44;;;;;;;2.70;1.60;;;3.10;89.50;;;;;;5106943;28;20042;-82
2021/01/27 05:13:24;;;;;;;5.68;1.55;;;3.10;89.80;;;;;;5093291;28;20102;-82
2021/01/27 05:15:50;;;;;;;2.50;1.60;;;3.10;89.90;;;;;;5093149;28;20020;-82
2021/01/27 05:18:16;;;;;;;2.58;1.67;;;3.10;90.00;;;;;;5092863;28;20024;-82
2021/01/27 05:20:42;;;;;;;3.00;1.80;;;3.00;90.10;;;;;;5093262;28;20392;-82
2021/01/27 05:23:07;;;;;;;4.13;1.83;;;3.00;90.10;;;;;;5072522;28;20066;-82
2021/01/27 05:25:41;;;;;;;3.63;1.83;;;3.00;90.20;;;;;;5075314;28;20028;-82
2021/01/27 05:28:13;;;;;;;4.13;1.90;;;2.90;90.30;;;;;;5092264;28;20032;-81
2021/01/27 05:30:53;;;;;;;1.90;1.52;;;2.90;90.30;;;;;;5092627;28;20474;-81
2021/01/27 05:33:19;;;;;;;3.55;1.83;;;2.90;90.40;;;;;;5092805;28;20028;-82
2021/01/27 05:35:46;;;;;;;3.63;1.70;;;2.90;90.40;;;;;;5092953;28;20028;-82
2021/01/27 05:38:26;;;;;;;3.17;1.58;;;2.90;90.50;;;;;;5068477;28;20058;-82
2021/01/27 05:41:07;;;;;;;3.90;1.55;;;2.90;90.50;;;;;;5092064;28;20587;-82
2021/01/27 05:43:36;;;;;;;2.70;1.65;;;2.80;90.60;;;;;;5092578;28;20063;-82
2021/01/27 05:46:11;;;;;;;2.65;1.67;;;2.80;90.60;;;;;;5092307;28;20020;-82
2021/01/27 05:48:49;;;;;;;3.63;1.70;;;2.80;90.70;;;;;;5093805;28;20024;-82
2021/01/27 05:51:18;;;;;;;3.03;1.70;;;2.70;90.70;;;;;;5093071;28;20024;-82
2021/01/27 05:53:44;;;;;;;2.50;1.70;;;2.70;90.80;;;;;;5094098;28;20107;-82
2021/01/27 05:56:17;;;;;;;2.25;1.60;;;2.70;90.80;;;;;;5093223;28;20104;-82
2021/01/27 05:59:06;;;;;;;4.15;1.33;;;2.70;90.80;;;;;;5093821;28;20024;-82
2021/01/27 06:01:43;;;;;;;4.20;1.92;;;2.70;90.90;;;;;;5092925;28;20028;-82
2021/01/27 06:04:11;;;;;;;2.10;1.50;;;2.60;90.80;;;;;;5072499;28;20021;-82
2021/01/27 06:06:45;;;;;;;5.15;1.60;;;2.70;90.90;;;;;;5088960;28;20362;-82
2021/01/27 06:09:12;;;;;;;1.77;1.35;;;2.70;90.90;;;;;;5093304;28;20051;-82
2021/01/27 06:11:38;;;;;;;2.28;1.50;;;2.60;90.90;;;;;;5092270;28;20448;-82
2021/01/27 06:14:11;;;;;;;2.25;1.63;;;2.70;90.90;;;;;;5092330;28;20040;-82
2021/01/27 06:16:45;;;;;;;1.48;1.25;;;2.60;91.00;;;;;;5092327;28;20020;-82
2021/01/27 06:19:19;;;;;;;2.78;1.80;;;2.60;91.00;;;;;;5075659;28;20416;-82
2021/01/27 06:22:03;;;;;;;4.93;1.77;;;2.70;91.10;;;;;;5092055;28;20035;-83
2021/01/27 06:24:32;;;;;;;4.32;1.77;;;2.60;91.10;;;;;;5092180;28;20099;-83
2021/01/27 06:27:04;;;;;;;2.33;1.77;;;2.70;91.10;;;;;;5092253;28;20111;-82
2021/01/27 06:29:45;;;;;;;2.03;1.70;;;2.70;91.10;;;;;;5092464;28;20032;-82
2021/01/27 06:32:29;;;;;;;2.15;1.65;;;2.70;91.20;;;;;;5092288;28;20028;-82
2021/01/27 06:35:09;;;;;;;3.78;1.88;;;2.70;91.10;;;;;;5093586;28;20035;-82
2021/01/27 06:38:05;;;;;;;3.08;2.15;;;2.70;91.30;;;;;;5093346;28;20028;-82
2021/01/27 06:40:39;;;;;;;2.63;1.70;;;2.80;91.40;;;;;;5092263;28;20028;-82
2021/01/27 06:43:26;;;;;;;3.97;1.88;;;2.80;91.40;;;;;;5093146;28;20093;-81
2021/01/27 06:46:15;;;;;;;2.60;1.70;;;2.80;91.50;;;;;;5093538;28;20020;-81
2021/01/27 06:49:23;;;;;;;2.60;1.70;;;2.80;91.40;;;;;;5080310;28;20032;-82
2021/01/27 06:52:17;;;;;;;2.97;1.58;;;2.80;91.50;;;;;;5063466;28;20040;-81
2021/01/27 06:55:19;;;;;;;3.60;1.58;;;2.90;91.50;;;;;;5086797;28;20094;-82
2021/01/27 06:57:53;;;;;;;2.22;1.80;;;2.90;91.50;;;;;;5092941;28;20071;-82
2021/01/27 07:00:27;;;;;;;3.90;1.95;;;2.90;91.50;;;;;;5092273;28;20039;-82
2021/01/27 07:03:24;;;;;;;3.72;1.90;;;2.90;91.60;;;;;;5091850;28;20038;-81
2021/01/27 07:06:05;;;;;;;2.55;1.65;;;2.90;91.60;;;;;;5091892;28;20017;-81
2021/01/27 07:09:05;;;;;;;3.53;1.83;;;3.00;91.60;;;;;;5093066;28;20020;-82
2021/01/27 07:11:38;;;;;;;2.33;1.50;;;3.00;91.60;;;;;;5078851;28;20039;-82
2021/01/27 07:14:28;;;;;;;4.38;1.60;;;3.00;91.60;;;;;;5093231;28;20024;-82
2021/01/27 07:16:57;;;;;;;4.07;1.90;;;3.00;91.70;;;;;;5091760;28;20020;-82
2021/01/27 07:19:36;;;;;;;3.40;1.57;;;3.00;91.60;;;;;;5093272;28;20021;-82
2021/01/27 07:22:08;;;;;;;;;;;3.10;91.70;;;;;;5093567;28;20103;-82
2021/01/27 07:24:40;;;;;;;2.38;1.70;;;3.10;91.70;;;;;;5091986;28;19995;-82
2021/01/27 07:27:21;;;;;;;3.70;1.73;;;3.10;91.70;;;;;;5092914;28;20492;-82
2021/01/27 07:29:52;;;;;;;3.88;1.80;;;3.10;91.70;;;;;;5091801;28;20028;-81
2021/01/27 07:32:24;;;;;;;3.22;1.73;;;3.10;91.80;;;;;;5091830;28;20024;-82
2021/01/27 07:35:16;;;;;;;3.15;1.83;;;3.10;91.80;;;;;;5093034;28;20032;-82
2021/01/27 07:38:01;;;;;;;2.58;1.60;;;3.10;91.80;;;;;;5091731;28;20068;-82
2021/01/27 07:40:38;;;;;;;3.90;2.17;;;3.10;91.80;;;;;;5092802;28;20392;-82
2021/01/27 07:43:23;;;;;;;4.80;2.33;;;3.10;91.80;;;;;;5092382;28;20044;-82
2021/01/27 07:45:55;;;;;;;3.80;1.88;;;3.20;91.90;;;;;;5091492;28;20115;-82
2021/01/27 07:48:33;;;;;;;3.63;2.00;;;3.10;92.00;;;;;;5071502;28;20017;-82
2021/01/27 07:51:11;;;;;;;3.17;2.20;;;3.10;92.00;;;;;;5076188;28;20021;-82
2021/01/27 07:54:08;;;;;;;3.88;1.92;;;3.10;92.10;;;;;;5074908;28;20074;-82
2021/01/27 07:56:49;;;;;;;4.43;1.80;;;3.20;92.10;;;;;;5088046;28;20070;-82
2021/01/27 07:59:47;;;;;;;4.70;1.80;;;3.10;92.00;;;;;;5095146;28;20020;-82
2021/01/27 08:02:20;;;;;;;2.67;1.90;;;3.20;92.10;;;;;;5094295;28;20068;-82
2021/01/27 08:04:50;;;;;;;1.98;1.50;;;3.20;92.10;;;;;;5096270;28;20039;-82
2021/01/27 08:07:32;;;;;;;2.50;1.75;;;3.20;92.10;;;;;;5096275;28;20480;-82
2021/01/27 08:10:28;;;;;;;7.22;2.17;;;3.30;92.10;;;;;;5094999;28;20530;-82
2021/01/27 08:12:56;;;;;;;4.07;2.05;;;3.30;92.20;;;;;;5093444;28;20051;-82
2021/01/27 08:15:25;;;;;;;3.53;2.08;;;3.20;92.20;;;;;;5094812;28;20034;-82
2021/01/27 08:18:03;;;;;;;2.05;1.80;;;3.20;92.20;;;;;;5094801;28;20028;-82
2021/01/27 08:20:39;;;;;;;3.85;2.20;;;3.30;92.30;;;;;;5094751;28;20036;-82
2021/01/27 08:23:29;;;;;;;2.80;2.20;;;3.20;92.20;;;;;;5094947;28;20030;-83
2021/01/27 08:26:04;;;;;;;2.47;1.98;;;3.30;92.30;;;;;;5094489;28;20020;-82
2021/01/27 08:28:36;;;;;;;3.92;2.38;;;3.20;92.30;;;;;;5094437;28;20035;-82
2021/01/27 08:31:10;;;;;;;2.28;2.08;;;3.20;92.50;;;;;;5095886;28;20023;-82
2021/01/27 08:33:49;;;;;;;2.92;1.95;;;3.20;92.50;;;;;;5094276;28;20020;-82
2021/01/27 08:36:42;;;;;;;4.20;2.80;;;3.20;92.50;;;;;;5093550;28;20063;-82
2021/01/27 08:39:20;;;;;;;3.50;1.75;;;3.30;92.50;;;;;;5093562;28;20477;-83
2021/01/27 08:42:01;;;;;;;3.30;2.13;;;3.30;92.50;;;;;;5093033;28;20048;-82
2021/01/27 08:44:32;;;;;;;4.35;2.17;;;3.30;92.60;;;;;;5093385;28;20380;-82
2021/01/27 08:47:15;;;;;;;2.33;1.98;;;3.40;92.50;;;;;;5094838;28;20047;-82
2021/01/27 08:49:57;;;;;;;2.83;1.85;;;3.40;92.50;;;;;;5095040;28;20048;-82
2021/01/27 08:52:29;;;;;;;5.82;2.13;;;3.40;92.60;;;;;;5093799;28;20032;-82
2021/01/27 08:54:55;;;;;;;2.20;2.00;;;3.40;92.60;;;;;;5095037;28;20050;-82
2021/01/27 08:57:36;;;;;;;2.65;1.90;;;3.40;92.70;;;;;;5093494;28;20036;-83
2021/01/27 09:00:12;;;;;;;2.45;1.80;;;3.40;92.70;;;;;;5093235;28;20028;-81
2021/01/27 09:02:38;;;;;;;3.25;2.47;;;3.50;92.70;;;;;;5093601;28;20028;-82
2021/01/27 09:05:24;;;;;;;2.20;2.00;;;3.40;92.70;;;;;;5095175;28;20024;-82
2021/01/27 09:08:05;;;;;;;2.78;1.90;;;3.40;92.80;;;;;;5073291;28;20119;-82
2021/01/27 09:10:37;;;;;;;2.58;1.92;;;3.40;92.70;;;;;;5093779;28;20020;-82
2021/01/27 09:13:38;;;;;;;3.33;2.10;;;3.50;92.70;;;;;;5093701;28;20493;-82
2021/01/27 09:16:19;;;;;;;3.10;2.50;;;3.50;92.80;;;;;;5093736;28;20393;-82
2021/01/27 09:19:09;;;;;;;3.13;2.30;;;3.50;92.80;;;;;;5093322;28;20031;-82
2021/01/27 09:21:36;;;;;;;2.80;2.53;;;3.50;92.80;;;;;;5094908;28;20520;-82
2021/01/27 09:24:11;;;;;;;3.25;2.95;;;3.50;92.80;;;;;;5076442;28;20043;-83
2021/01/27 09:26:41;;;;;;;3.45;2.90;;;3.50;93.20;;;;;;5094794;28;20028;-82
2021/01/27 09:29:18;;;;;;;3.97;3.20;;;3.50;92.90;;;;;;5093469;28;20066;-82
2021/01/27 09:31:44;;;;;;;4.05;2.90;;;3.50;93.00;;;;;;5093386;28;20479;-82
2021/01/27 09:34:22;;;;;;;2.78;2.58;;;3.50;93.00;;;;;;5076399;28;20070;-83
2021/01/27 09:36:49;;;;;;;4.32;2.55;;;3.50;93.10;;;;;;5092044;28;20058;-82
2021/01/27 09:39:25;;;;;;;3.63;2.85;;;3.50;93.10;;;;;;5088224;28;20384;-83
2021/01/27 09:41:51;;;;;;;3.35;2.90;;;3.60;93.10;;;;;;5092529;28;20045;-82
2021/01/27 09:44:36;;;;;;;3.47;2.63;;;3.60;93.10;;;;;;5093171;28;20077;-82
2021/01/27 09:47:13;;;;;;;3.30;3.00;;;3.60;93.20;;;;;;5092747;28;20392;-82
2021/01/27 09:49:51;;;;;;;6.53;3.80;;;3.60;93.20;;;;;;5092198;28;20511;-82
2021/01/27 09:52:19;;;;;;;5.10;3.03;;;3.60;93.30;;;;;;5094191;28;20024;-82
2021/01/27 09:54:49;;;;;;;6.78;4.55;;;3.60;93.30;;;;;;5093809;28;20032;-82
2021/01/27 09:57:19;;;;;;;5.25;3.80;;;3.60;93.30;;;;;;5092381;28;20491;-82
2021/01/27 09:59:54;;;;;;;;;;;3.70;93.40;;;;;;5092301;28;20492;-83
2021/01/27 10:02:32;;;;;;;3.13;2.70;;;3.70;93.40;;;;;;5091550;28;19912;-83
2021/01/27 10:04:59;;;;;;;3.85;2.75;;;3.70;93.40;;;;;;5092680;28;20035;-83
2021/01/27 10:07:30;;;;;;;4.05;2.70;;;3.60;93.40;;;;;;5093961;28;20134;-83
2021/01/27 10:10:09;;;;;;;5.28;2.95;;;3.70;93.40;;;;;;5092709;28;20031;-83
2021/01/27 10:12:35;;;;;;;;;;;3.70;93.40;;;;;;5094236;28;20028;-83
2021/01/27 10:15:19;;;;;;;5.82;3.33;;;3.70;93.50;;;;;;5126786;27;19915;-83
2021/01/27 10:17:50;;;;;;;5.63;4.07;;;3.70;93.50;;;;;;5073635;28;20035;-83
2021/01/27 10:20:31;;;;;;;4.40;4.00;;;3.70;93.60;;;;;;5072377;28;20385;-83
2021/01/27 10:23:06;;;;;;;7.35;4.15;;;3.80;93.70;;;;;;5055609;28;20029;-83
2021/01/27 10:25:41;;;;;;;4.85;4.30;;;3.70;93.70;;;;;;5077880;28;20027;-83
2021/01/27 10:28:10;;;;;;;5.45;4.45;;;3.80;93.80;;;;;;5078696;28;20028;-83
2021/01/27 10:30:56;;;;;;;4.43;4.00;;;3.80;93.80;;;;;;5081217;28;20024;-84
2021/01/27 10:33:40;;;;;;;6.00;5.10;;;3.80;93.80;;;;;;5092426;28;20115;-83
2021/01/27 10:36:24;;;;;;;6.22;4.70;;;3.90;93.80;;;;;;5092224;28;20079;-83
2021/01/27 10:39:08;;;;;;;8.18;5.88;;;3.90;93.80;;;;;;5093617;28;20032;-83
2021/01/27 10:41:34;;;;;;;5.68;5.13;;;3.90;93.90;;;;;;5092193;28;20060;-84
2021/01/27 10:44:18;;;;;;;5.13;4.63;;;3.90;93.90;;;;;;5092459;28;20388;-83
2021/01/27 10:46:44;;;;;;;5.78;5.18;;;3.90;93.90;;;;;;5093681;28;20020;-83
2021/01/27 10:49:09;;;;;;;7.80;6.88;;;4.00;93.90;;;;;;5075512;28;20119;-83
2021/01/27 10:51:35;;;;;;;8.35;5.00;;;4.00;93.90;;;;;;5092485;28;20415;-84
2021/01/27 10:54:02;;;;;;;5.28;4.72;;;4.00;93.90;;;;;;5092438;28;20028;-84
2021/01/27 10:56:27;;;;;;;6.95;4.72;;;4.10;93.90;;;;;;5075521;28;20078;-84
2021/01/27 10:58:53;;;;;;;5.72;5.15;;;4.10;93.90;;;;;;5093611;28;20480;-83
2021/01/27 11:01:18;;;;;;;5.88;5.28;;;4.10;93.80;;;;;;5075181;28;20106;-82
2021/01/27 11:03:44;;;;;;;8.35;6.20;;;4.20;93.80;;;;;;5075397;28;20024;-83
2021/01/27 11:06:10;;;;;;;6.72;5.55;;;4.20;93.80;;;;;;5075298;28;20028;-84
2021/01/27 11:08:37;;;;;;;7.25;5.43;;;4.20;93.80;;;;;;5071822;28;20109;-83
2021/01/27 11:11:04;;;;;;;5.88;5.28;;;4.20;93.80;;;;;;5072072;28;20462;-84
2021/01/27 11:13:32;;;;;;;7.47;6.30;;;4.20;93.80;;;;;;5091398;28;20028;-83
2021/01/27 11:15:58;;;;;;;10.07;7.70;;;4.20;93.80;;;;;;5075570;28;20439;-84
2021/01/27 11:18:23;;;;;;;7.80;6.30;;;4.20;93.80;;;;;;5093312;28;20477;-83
2021/01/27 11:20:50;;;;;;;10.35;7.05;;;4.20;94.10;;;;;;5075161;28;20032;-83
2021/01/27 11:23:16;;;;;;;12.55;7.65;;;4.20;93.90;;;;;;5091888;28;20036;-83
2021/01/27 11:25:41;;;;;;;14.18;9.52;;;4.30;93.90;;;;;;5095564;28;20024;-83
2021/01/27 11:28:07;;;;;;;8.75;7.32;;;4.30;94.00;;;;;;5078612;28;20492;-83
2021/01/27 11:30:33;;;;;;;13.77;8.25;;;4.30;94.00;;;;;;5076545;28;20028;-83
2021/01/27 11:32:59;;;;;;;11.95;8.45;;;4.40;94.00;;;;;;5056742;28;20032;-82
2021/01/27 11:35:25;;;;;;;10.13;8.80;;;4.40;94.00;;;;;;5094707;28;20350;-82
2021/01/27 11:37:51;;;;;;;15.63;10.77;;;4.40;94.00;;;;;;5086962;28;20036;-83
2021/01/27 11:40:19;;;;;;;17.55;10.95;;;4.40;94.10;;;;;;5095425;28;20484;-83
2021/01/27 11:42:45;;;;;;;16.90;11.10;;;4.40;94.10;;;;;;5096347;28;20087;-83
2021/01/27 11:45:11;;;;;;;12.65;9.70;;;4.50;94.10;;;;;;5096586;28;20016;-82
2021/01/27 11:47:37;;;;;;;9.48;7.50;;;4.50;94.10;;;;;;5074973;28;20482;-82
2021/01/27 11:50:05;;;;;;;10.27;8.35;;;4.50;94.10;;;;;;5074987;28;20051;-82
2021/01/27 11:52:31;;;;;;;12.63;9.10;;;4.50;94.10;;;;;;5089814;28;20055;-83
2021/01/27 11:54:56;;;;;;;11.75;9.15;;;4.60;94.10;;;;;;5096278;28;20039;-82
2021/01/27 11:57:22;;;;;;;13.10;10.63;;;4.60;94.10;;;;;;5095001;28;20082;-82
2021/01/27 11:59:48;;;;;;;16.35;12.65;;;4.60;94.10;;;;;;5095023;28;20029;-82
2021/01/27 12:02:13;;;;;;;16.23;10.68;;;4.70;94.00;;;;;;5095006;28;20119;-82
2021/01/27 12:04:39;;;;;;;17.73;11.90;;;4.70;94.10;;;;;;5078350;28;20028;-83
2021/01/27 12:07:06;;;;;;;14.32;10.70;;;4.70;94.10;;;;;;5078271;28;20024;-83
2021/01/27 12:09:35;;;;;;;12.52;9.68;;;4.70;94.00;;;;;;5078191;28;20439;-82
2021/01/27 12:12:05;;;;;;;;;;;4.70;94.10;;;;;;5096710;28;20060;-83
2021/01/27 12:14:31;;;;;;;14.45;10.80;;;4.70;94.00;;;;;;5094577;28;19910;-82
2021/01/27 12:16:56;;;;;;;19.58;13.00;;;4.60;94.00;;;;;;5077621;28;20115;-82
2021/01/27 12:19:22;;;;;;;12.50;9.80;;;4.60;94.10;;;;;;5094777;28;20032;-82
2021/01/27 12:21:48;;;;;;;14.63;10.65;;;4.70;94.40;;;;;;5094736;28;20035;-83
2021/01/27 12:24:13;;;;;;;13.32;10.77;;;4.70;94.10;;;;;;5094630;28;20024;-83
2021/01/27 12:26:40;;;;;;;17.75;12.35;;;4.70;94.10;;;;;;5094617;28;20081;-82
2021/01/27 12:29:06;;;;;;;17.67;12.98;;;4.70;94.10;;;;;;5077871;28;20028;-82
2021/01/27 12:31:32;;;;;;;25.33;16.15;;;4.70;94.10;;;;;;5094536;28;20431;-82
2021/01/27 12:33:57;;;;;;;14.07;11.60;;;4.70;94.20;;;;;;5095693;28;20031;-83
2021/01/27 12:36:23;;;;;;;18.45;14.48;;;4.70;94.20;;;;;;5094059;28;20085;-82
2021/01/27 12:38:49;;;;;;;19.63;13.18;;;4.80;94.30;;;;;;5095770;28;20012;-82
2021/01/27 12:41:14;;;;;;;16.48;13.13;;;4.80;94.30;;;;;;5094333;28;20417;-81
2021/01/27 12:43:40;;;;;;;15.43;11.65;;;4.80;94.30;;;;;;5093762;28;20059;-82
2021/01/27 12:46:06;;;;;;;16.52;13.63;;;4.80;94.30;;;;;;5094263;28;20606;-83
2021/01/27 12:48:32;;;;;;;17.13;13.52;;;4.80;94.30;;;;;;5077051;28;20370;-81
2021/01/27 12:50:59;;;;;;;18.77;13.90;;;4.80;94.30;;;;;;5077222;28;20016;-81
2021/01/27 12:53:26;;;;;;;19.38;14.45;;;4.90;94.30;;;;;;5093937;28;20035;-80
2021/01/27 12:55:53;;;;;;;22.85;16.15;;;4.80;94.60;;;;;;5094078;28;20504;-80
2021/01/27 12:58:19;;;;;;;18.63;14.35;;;4.90;94.40;;;;;;5092888;28;20024;-80
2021/01/27 13:00:44;;;;;;;20.85;16.38;;;4.90;94.30;;;;;;5092982;28;20031;-79
2021/01/27 13:03:10;;;;;;;18.23;13.63;;;4.90;94.30;;;;;;5092665;28;20024;-79
2021/01/27 13:05:37;;;;;;;16.60;12.68;;;4.90;94.30;;;;;;5073127;28;20083;-79
2021/01/27 13:08:03;;;;;;;17.20;14.20;;;4.90;94.30;;;;;;5074760;28;20100;-79
2021/01/27 13:10:29;;;;;;;19.38;14.45;;;4.90;94.40;;;;;;5074491;28;20464;-80
2021/01/27 13:12:55;;;;;;;22.42;15.73;;;4.90;94.40;;;;;;5075158;28;20458;-80
2021/01/27 13:15:21;;;;;;;22.73;16.17;;;4.90;94.40;;;;;;5093454;28;20074;-80
2021/01/27 13:17:48;;;;;;;20.13;15.60;;;4.90;94.40;;;;;;5076609;28;20477;-79
2021/01/27 13:20:17;;;;;;;25.77;17.80;;;4.90;94.50;;;;;;5094791;28;20413;-80
2021/01/27 13:22:44;;;;;;;21.35;14.75;;;5.00;94.50;;;;;;5093282;28;20062;-80
2021/01/27 13:25:12;;;;;;;30.08;19.15;;;5.00;94.50;;;;;;5094779;28;20081;-79
2021/01/27 13:27:39;;;;;;;26.13;18.08;;;5.00;94.50;;;;;;5072846;28;20116;-80